sensor_id;sensor_type;location;lat;lon;timestamp;pressure;altitude;pressure_sealevel;temperature
74750;BMP280;63269;53.330;-6.288;2023-07-09T00:01:57;101310.91;;;23.63
74750;BMP280;63269;53.330;-6.288;2023-07-09T00:04:22;101310.16;;;23.62
74750;BMP280;63269;53.330;-6.288;2023-07-09T00:06:48;101310.16;;;23.62
74750;BMP280;63269;53.330;-6.288;2023-07-09T00:09:15;101314.00;;;23.61
74750;BMP280;63269;53.330;-6.288;2023-07-09T00:11:44;101314.00;;;23.61
74750;BMP280;63269;53.330;-6.288;2023-07-09T00:14:12;101318.66;;;23.61
74750;BMP280;63269;53.330;-6.288;2023-07-09T00:16:39;101315.25;;;23.60
74750;BMP280;63269;53.330;-6.288;2023-07-09T00:19:12;101319.81;;;23.60
74750;BMP280;63269;53.330;-6.288;2023-07-09T00:21:41;101319.81;;;23.60
74750;BMP280;63269;53.330;-6.288;2023-07-09T00:24:07;101337.09;;;23.59
74750;BMP280;63269;53.330;-6.288;2023-07-09T00:26:35;101332.91;;;23.58
74750;BMP280;63269;53.330;-6.288;2023-07-09T00:29:03;101321.44;;;23.57
74750;BMP280;63269;53.330;-6.288;2023-07-09T00:31:29;101308.81;;;23.58
74750;BMP280;63269;53.330;-6.288;2023-07-09T00:33:54;101320.72;;;23.57
74750;BMP280;63269;53.330;-6.288;2023-07-09T00:36:30;101316.09;;;23.57
74750;BMP280;63269;53.330;-6.288;2023-07-09T00:38:59;101319.97;;;23.56
74750;BMP280;63269;53.330;-6.288;2023-07-09T00:41:32;101319.97;;;23.56
74750;BMP280;63269;53.330;-6.288;2023-07-09T00:44:13;101316.53;;;23.56
74750;BMP280;63269;53.330;-6.288;2023-07-09T00:49:11;101315.06;;;23.55
74750;BMP280;63269;53.330;-6.288;2023-07-09T00:51:43;101330.34;;;23.54
74750;BMP280;63269;53.330;-6.288;2023-07-09T00:54:22;101328.44;;;23.55
74750;BMP280;63269;53.330;-6.288;2023-07-09T00:56:52;101334.25;;;23.53
74750;BMP280;63269;53.330;-6.288;2023-07-09T00:59:20;101334.25;;;23.53
74750;BMP280;63269;53.330;-6.288;2023-07-09T01:01:47;101325.88;;;23.51
74750;BMP280;63269;53.330;-6.288;2023-07-09T01:04:16;101325.88;;;23.51
74750;BMP280;63269;53.330;-6.288;2023-07-09T01:06:52;101315.91;;;23.52
74750;BMP280;63269;53.330;-6.288;2023-07-09T01:09:18;101320.53;;;23.51
74750;BMP280;63269;53.330;-6.288;2023-07-09T01:11:44;101319.78;;;23.51
74750;BMP280;63269;53.330;-6.288;2023-07-09T01:14:12;101319.78;;;23.51
74750;BMP280;63269;53.330;-6.288;2023-07-09T01:16:44;101318.31;;;23.50
74750;BMP280;63269;53.330;-6.288;2023-07-09T01:19:12;101312.94;;;23.50
74750;BMP280;63269;53.330;-6.288;2023-07-09T01:21:39;101314.13;;;23.48
74750;BMP280;63269;53.330;-6.288;2023-07-09T01:26:39;101307.28;;;23.47
74750;BMP280;63269;53.330;-6.288;2023-07-09T01:29:04;101315.78;;;23.46
74750;BMP280;63269;53.330;-6.288;2023-07-09T01:31:30;101315.78;;;23.46
74750;BMP280;63269;53.330;-6.288;2023-07-09T01:33:56;101322.28;;;23.45
74750;BMP280;63269;53.330;-6.288;2023-07-09T01:36:22;101319.91;;;23.47
74750;BMP280;63269;53.330;-6.288;2023-07-09T01:38:52;101315.31;;;23.47
74750;BMP280;63269;53.330;-6.288;2023-07-09T01:41:18;101321.13;;;23.46
74750;BMP280;63269;53.330;-6.288;2023-07-09T01:43:45;101321.13;;;23.46
74750;BMP280;63269;53.330;-6.288;2023-07-09T01:46:11;101320.03;;;23.43
74750;BMP280;63269;53.330;-6.288;2023-07-09T01:48:38;101322.72;;;23.43
74750;BMP280;63269;53.330;-6.288;2023-07-09T01:51:10;101322.72;;;23.43
74750;BMP280;63269;53.330;-6.288;2023-07-09T01:53:37;101318.09;;;23.44
74750;BMP280;63269;53.330;-6.288;2023-07-09T01:56:04;101318.09;;;23.44
74750;BMP280;63269;53.330;-6.288;2023-07-09T01:58:33;101305.88;;;23.43
74750;BMP280;63269;53.330;-6.288;2023-07-09T02:00:58;101300.53;;;23.43
74750;BMP280;63269;53.330;-6.288;2023-07-09T02:03:24;101300.53;;;23.43
74750;BMP280;63269;53.330;-6.288;2023-07-09T02:05:52;101308.56;;;23.43
74750;BMP280;63269;53.330;-6.288;2023-07-09T02:08:17;101308.56;;;23.43
74750;BMP280;63269;53.330;-6.288;2023-07-09T02:10:44;101306.34;;;23.41
74750;BMP280;63269;53.330;-6.288;2023-07-09T02:13:10;101306.34;;;23.41
74750;BMP280;63269;53.330;-6.288;2023-07-09T02:15:36;101310.22;;;23.40
74750;BMP280;63269;53.330;-6.288;2023-07-09T02:18:01;101307.53;;;23.40
74750;BMP280;63269;53.330;-6.288;2023-07-09T02:20:27;101310.97;;;23.41
74750;BMP280;63269;53.330;-6.288;2023-07-09T02:22:53;101309.03;;;23.41
74750;BMP280;63269;53.330;-6.288;2023-07-09T02:25:19;101309.03;;;23.41
74750;BMP280;63269;53.330;-6.288;2023-07-09T02:27:44;101314.81;;;23.40
74750;BMP280;63269;53.330;-6.288;2023-07-09T02:30:10;101320.16;;;23.40
74750;BMP280;63269;53.330;-6.288;2023-07-09T02:32:36;101306.03;;;23.39
74750;BMP280;63269;53.330;-6.288;2023-07-09T02:35:02;101316.75;;;23.39
74750;BMP280;63269;53.330;-6.288;2023-07-09T02:37:27;101313.31;;;23.39
74750;BMP280;63269;53.330;-6.288;2023-07-09T02:39:53;101313.31;;;23.39
74750;BMP280;63269;53.330;-6.288;2023-07-09T02:42:20;101301.13;;;23.38
74750;BMP280;63269;53.330;-6.288;2023-07-09T02:44:46;101311.84;;;23.38
74750;BMP280;63269;53.330;-6.288;2023-07-09T02:47:12;101311.84;;;23.38
74750;BMP280;63269;53.330;-6.288;2023-07-09T02:49:39;101297.22;;;23.39
74750;BMP280;63269;53.330;-6.288;2023-07-09T02:52:05;101297.22;;;23.39
74750;BMP280;63269;53.330;-6.288;2023-07-09T02:54:30;101303.03;;;23.37
74750;BMP280;63269;53.330;-6.288;2023-07-09T02:56:56;101297.69;;;23.37
74750;BMP280;63269;53.330;-6.288;2023-07-09T02:59:22;101295.00;;;23.37
74750;BMP280;63269;53.330;-6.288;2023-07-09T03:01:48;101302.31;;;23.37
74750;BMP280;63269;53.330;-6.288;2023-07-09T03:04:14;101305.41;;;23.35
74750;BMP280;63269;53.330;-6.288;2023-07-09T03:06:40;101297.69;;;23.37
74750;BMP280;63269;53.330;-6.288;2023-07-09T03:09:06;101299.19;;;23.38
74750;BMP280;63269;53.330;-6.288;2023-07-09T03:11:33;101295.78;;;23.38
74750;BMP280;63269;53.330;-6.288;2023-07-09T03:14:00;101295.78;;;23.38
74750;BMP280;63269;53.330;-6.288;2023-07-09T03:16:31;101293.84;;;23.38
74750;BMP280;63269;53.330;-6.288;2023-07-09T03:18:58;101291.59;;;23.37
74750;BMP280;63269;53.330;-6.288;2023-07-09T03:21:25;101291.59;;;23.37
74750;BMP280;63269;53.330;-6.288;2023-07-09T03:23:51;101293.53;;;23.36
74750;BMP280;63269;53.330;-6.288;2023-07-09T03:26:17;101289.66;;;23.37
74750;BMP280;63269;53.330;-6.288;2023-07-09T03:28:43;101283.56;;;23.37
74750;BMP280;63269;53.330;-6.288;2023-07-09T03:31:08;101273.28;;;23.35
74750;BMP280;63269;53.330;-6.288;2023-07-09T03:33:34;101273.28;;;23.35
74750;BMP280;63269;53.330;-6.288;2023-07-09T03:35:59;101274.78;;;23.36
74750;BMP280;63269;53.330;-6.288;2023-07-09T03:38:25;101274.78;;;23.36
74750;BMP280;63269;53.330;-6.288;2023-07-09T03:40:53;101277.78;;;23.38
74750;BMP280;63269;53.330;-6.288;2023-07-09T03:43:20;101277.78;;;23.38
74750;BMP280;63269;53.330;-6.288;2023-07-09T03:45:46;101286.97;;;23.37
74750;BMP280;63269;53.330;-6.288;2023-07-09T03:48:13;101284.31;;;23.37
74750;BMP280;63269;53.330;-6.288;2023-07-09T03:50:38;101284.31;;;23.37
74750;BMP280;63269;53.330;-6.288;2023-07-09T03:53:04;101278.22;;;23.37
74750;BMP280;63269;53.330;-6.288;2023-07-09T03:55:31;101278.22;;;23.37
74750;BMP280;63269;53.330;-6.288;2023-07-09T03:57:56;101274.38;;;23.38
74750;BMP280;63269;53.330;-6.288;2023-07-09T04:00:23;101279.72;;;23.38
74750;BMP280;63269;53.330;-6.288;2023-07-09T04:02:51;101278.22;;;23.37
74750;BMP280;63269;53.330;-6.288;2023-07-09T04:05:16;101280.88;;;23.37
74750;BMP280;63269;53.330;-6.288;2023-07-09T04:07:42;101278.63;;;23.35
74750;BMP280;63269;53.330;-6.288;2023-07-09T04:10:08;101283.56;;;23.37
74750;BMP280;63269;53.330;-6.288;2023-07-09T04:12:34;101282.50;;;23.34
74750;BMP280;63269;53.330;-6.288;2023-07-09T04:15:00;101282.50;;;23.34
74750;BMP280;63269;53.330;-6.288;2023-07-09T04:17:25;101292.03;;;23.35
74750;BMP280;63269;53.330;-6.288;2023-07-09T04:19:51;101292.03;;;23.35
74750;BMP280;63269;53.330;-6.288;2023-07-09T04:22:16;101282.50;;;23.34
74750;BMP280;63269;53.330;-6.288;2023-07-09T04:24:43;101284.00;;;23.35
74750;BMP280;63269;53.330;-6.288;2023-07-09T04:32:01;101285.97;;;23.35
74750;BMP280;63269;53.330;-6.288;2023-07-09T04:34:26;101281.78;;;23.34
74750;BMP280;63269;53.330;-6.288;2023-07-09T04:36:52;101279.84;;;23.34
74750;BMP280;63269;53.330;-6.288;2023-07-09T04:39:17;101279.84;;;23.34
74750;BMP280;63269;53.330;-6.288;2023-07-09T04:41:43;101274.47;;;23.34
74750;BMP280;63269;53.330;-6.288;2023-07-09T04:44:08;101274.47;;;23.34
74750;BMP280;63269;53.330;-6.288;2023-07-09T04:46:33;101271.06;;;23.34
74750;BMP280;63269;53.330;-6.288;2023-07-09T04:48:59;101271.06;;;23.34
74750;BMP280;63269;53.330;-6.288;2023-07-09T04:51:25;101277.59;;;23.33
74750;BMP280;63269;53.330;-6.288;2023-07-09T04:53:51;101275.66;;;23.33
74750;BMP280;63269;53.330;-6.288;2023-07-09T04:56:17;101281.78;;;23.34
74750;BMP280;63269;53.330;-6.288;2023-07-09T04:58:43;101281.78;;;23.34
74750;BMP280;63269;53.330;-6.288;2023-07-09T05:01:09;101277.16;;;23.34
74750;BMP280;63269;53.330;-6.288;2023-07-09T05:03:34;101277.16;;;23.34
74750;BMP280;63269;53.330;-6.288;2023-07-09T05:06:00;101271.06;;;23.34
74750;BMP280;63269;53.330;-6.288;2023-07-09T05:08:25;101260.34;;;23.34
74750;BMP280;63269;53.330;-6.288;2023-07-09T05:10:51;101264.94;;;23.33
74750;BMP280;63269;53.330;-6.288;2023-07-09T05:13:18;101264.94;;;23.33
74750;BMP280;63269;53.330;-6.288;2023-07-09T05:15:46;101258.84;;;23.33
74750;BMP280;63269;53.330;-6.288;2023-07-09T05:18:13;101260.34;;;23.34
74750;BMP280;63269;53.330;-6.288;2023-07-09T05:20:39;101262.25;;;23.33
74750;BMP280;63269;53.330;-6.288;2023-07-09T05:23:05;101250.81;;;23.33
74750;BMP280;63269;53.330;-6.288;2023-07-09T05:25:30;101262.25;;;23.33
74750;BMP280;63269;53.330;-6.288;2023-07-09T05:27:56;101250.09;;;23.32
74750;BMP280;63269;53.330;-6.288;2023-07-09T05:30:22;101256.16;;;23.33
74750;BMP280;63269;53.330;-6.288;2023-07-09T05:32:47;101238.94;;;23.34
74750;BMP280;63269;53.330;-6.288;2023-07-09T05:35:13;101238.94;;;23.34
74750;BMP280;63269;53.330;-6.288;2023-07-09T05:37:39;101235.50;;;23.33
74750;BMP280;63269;53.330;-6.288;2023-07-09T05:40:06;101234.75;;;23.33
74750;BMP280;63269;53.330;-6.288;2023-07-09T05:42:32;101234.75;;;23.33
74750;BMP280;63269;53.330;-6.288;2023-07-09T05:44:58;101237.44;;;23.33
74750;BMP280;63269;53.330;-6.288;2023-07-09T05:47:24;101236.25;;;23.34
74750;BMP280;63269;53.330;-6.288;2023-07-09T05:49:49;101240.13;;;23.33
74750;BMP280;63269;53.330;-6.288;2023-07-09T05:52:19;101238.94;;;23.34
74750;BMP280;63269;53.330;-6.288;2023-07-09T05:54:45;101240.84;;;23.33
74750;BMP280;63269;53.330;-6.288;2023-07-09T05:57:11;101242.03;;;23.32
74750;BMP280;63269;53.330;-6.288;2023-07-09T05:59:36;101244.72;;;23.32
74750;BMP280;63269;53.330;-6.288;2023-07-09T06:02:02;101245.47;;;23.33
74750;BMP280;63269;53.330;-6.288;2023-07-09T06:04:28;101237.00;;;23.34
74750;BMP280;63269;53.330;-6.288;2023-07-09T06:06:56;101243.13;;;23.35
74750;BMP280;63269;53.330;-6.288;2023-07-09T06:09:21;101244.28;;;23.34
74750;BMP280;63269;53.330;-6.288;2023-07-09T06:11:46;101236.25;;;23.34
74750;BMP280;63269;53.330;-6.288;2023-07-09T06:14:12;101238.47;;;23.35
74750;BMP280;63269;53.330;-6.288;2023-07-09T06:16:37;101238.47;;;23.35
74750;BMP280;63269;53.330;-6.288;2023-07-09T06:19:03;101234.75;;;23.33
74750;BMP280;63269;53.330;-6.288;2023-07-09T06:21:28;101231.66;;;23.34
74750;BMP280;63269;53.330;-6.288;2023-07-09T06:23:54;101231.66;;;23.34
74750;BMP280;63269;53.330;-6.288;2023-07-09T06:26:19;101233.59;;;23.34
74750;BMP280;63269;53.330;-6.288;2023-07-09T06:28:46;101241.16;;;23.35
74750;BMP280;63269;53.330;-6.288;2023-07-09T06:31:11;101241.16;;;23.35
74750;BMP280;63269;53.330;-6.288;2023-07-09T06:33:37;101243.13;;;23.35
74750;BMP280;63269;53.330;-6.288;2023-07-09T06:36:02;101253.38;;;23.36
74750;BMP280;63269;53.330;-6.288;2023-07-09T06:38:28;101253.38;;;23.36
74750;BMP280;63269;53.330;-6.288;2023-07-09T06:40:55;101239.69;;;23.34
74750;BMP280;63269;53.330;-6.288;2023-07-09T06:43:21;101242.34;;;23.34
74750;BMP280;63269;53.330;-6.288;2023-07-09T06:45:56;101251.88;;;23.35
74750;BMP280;63269;53.330;-6.288;2023-07-09T06:48:23;101248.03;;;23.36
74750;BMP280;63269;53.330;-6.288;2023-07-09T06:50:48;101248.03;;;23.36
74750;BMP280;63269;53.330;-6.288;2023-07-09T06:53:14;101243.13;;;23.35
74750;BMP280;63269;53.330;-6.288;2023-07-09T06:55:40;101234.63;;;23.36
74750;BMP280;63269;53.330;-6.288;2023-07-09T06:58:06;101230.44;;;23.35
74750;BMP280;63269;53.330;-6.288;2023-07-09T07:00:33;101237.31;;;23.36
74750;BMP280;63269;53.330;-6.288;2023-07-09T07:02:59;101229.75;;;23.35
74750;BMP280;63269;53.330;-6.288;2023-07-09T07:05:24;101223.63;;;23.34
74750;BMP280;63269;53.330;-6.288;2023-07-09T07:10:15;101208.59;;;23.37
74750;BMP280;63269;53.330;-6.288;2023-07-09T07:12:43;101208.59;;;23.37
74750;BMP280;63269;53.330;-6.288;2023-07-09T07:15:09;101212.78;;;23.38
74750;BMP280;63269;53.330;-6.288;2023-07-09T07:17:35;101212.78;;;23.38
74750;BMP280;63269;53.330;-6.288;2023-07-09T07:20:00;101216.91;;;23.39
74750;BMP280;63269;53.330;-6.288;2023-07-09T07:22:25;101216.91;;;23.39
74750;BMP280;63269;53.330;-6.288;2023-07-09T07:24:51;101208.88;;;23.39
74750;BMP280;63269;53.330;-6.288;2023-07-09T07:27:17;101201.63;;;23.39
74750;BMP280;63269;53.330;-6.288;2023-07-09T07:29:42;101194.31;;;23.40
74750;BMP280;63269;53.330;-6.288;2023-07-09T07:32:08;101194.31;;;23.40
74750;BMP280;63269;53.330;-6.288;2023-07-09T07:34:33;101194.31;;;23.40
74750;BMP280;63269;53.330;-6.288;2023-07-09T07:36:59;101201.94;;;23.41
74750;BMP280;63269;53.330;-6.288;2023-07-09T07:39:24;101204.59;;;23.41
74750;BMP280;63269;53.330;-6.288;2023-07-09T07:41:50;101198.50;;;23.41
74750;BMP280;63269;53.330;-6.288;2023-07-09T07:44:16;101208.78;;;23.42
74750;BMP280;63269;53.330;-6.288;2023-07-09T07:46:42;101211.91;;;23.41
74750;BMP280;63269;53.330;-6.288;2023-07-09T07:49:07;101219.94;;;23.41
74750;BMP280;63269;53.330;-6.288;2023-07-09T07:51:33;101224.13;;;23.42
74750;BMP280;63269;53.330;-6.288;2023-07-09T07:53:59;101208.78;;;23.42
74750;BMP280;63269;53.330;-6.288;2023-07-09T07:56:24;101217.53;;;23.43
74750;BMP280;63269;53.330;-6.288;2023-07-09T07:58:51;101217.53;;;23.43
74750;BMP280;63269;53.330;-6.288;2023-07-09T08:01:16;101220.22;;;23.43
74750;BMP280;63269;53.330;-6.288;2023-07-09T08:03:42;101216.38;;;23.44
74750;BMP280;63269;53.330;-6.288;2023-07-09T08:06:07;101225.13;;;23.44
74750;BMP280;63269;53.330;-6.288;2023-07-09T08:08:33;101225.91;;;23.45
74750;BMP280;63269;53.330;-6.288;2023-07-09T08:11:04;101234.97;;;23.47
74750;BMP280;63269;53.330;-6.288;2023-07-09T08:13:32;101240.34;;;23.47
74750;BMP280;63269;53.330;-6.288;2023-07-09T08:15:58;101230.38;;;23.48
74750;BMP280;63269;53.330;-6.288;2023-07-09T08:18:23;101228.75;;;23.51
74750;BMP280;63269;53.330;-6.288;2023-07-09T08:20:49;101224.84;;;23.52
74750;BMP280;63269;53.330;-6.288;2023-07-09T08:23:14;101239.03;;;23.52
74750;BMP280;63269;53.330;-6.288;2023-07-09T08:25:40;101235.16;;;23.53
74750;BMP280;63269;53.330;-6.288;2023-07-09T08:28:05;101249.28;;;23.54
74750;BMP280;63269;53.330;-6.288;2023-07-09T08:30:31;101252.69;;;23.54
74750;BMP280;63269;53.330;-6.288;2023-07-09T08:32:56;101257.59;;;23.56
74750;BMP280;63269;53.330;-6.288;2023-07-09T08:35:22;101256.13;;;23.55
74750;BMP280;63269;53.330;-6.288;2023-07-09T08:37:48;101244.22;;;23.56
74750;BMP280;63269;53.330;-6.288;2023-07-09T08:40:15;101252.25;;;23.56
74750;BMP280;63269;53.330;-6.288;2023-07-09T08:42:44;101245.00;;;23.56
74750;BMP280;63269;53.330;-6.288;2023-07-09T08:50:14;101248.09;;;23.55
74750;BMP280;63269;53.330;-6.288;2023-07-09T08:52:42;101240.81;;;23.55
74750;BMP280;63269;53.330;-6.288;2023-07-09T08:55:15;101250.34;;;23.56
74750;BMP280;63269;53.330;-6.288;2023-07-09T08:57:44;101261.81;;;23.57
74750;BMP280;63269;53.330;-6.288;2023-07-09T09:03:14;101250.63;;;23.58
74750;BMP280;63269;53.330;-6.288;2023-07-09T09:05:43;101257.91;;;23.58
74750;BMP280;63269;53.330;-6.288;2023-07-09T09:10:48;101259.84;;;23.57
74750;BMP280;63269;53.330;-6.288;2023-07-09T09:13:16;101254.50;;;23.57
74750;BMP280;63269;53.330;-6.288;2023-07-09T09:15:44;101257.91;;;23.58
74750;BMP280;63269;53.330;-6.288;2023-07-09T09:18:25;101271.31;;;23.58
74750;BMP280;63269;53.330;-6.288;2023-07-09T09:21:10;101267.47;;;23.59
74750;BMP280;63269;53.330;-6.288;2023-07-09T09:23:44;101261.34;;;23.58
74750;BMP280;63269;53.330;-6.288;2023-07-09T09:26:21;101262.09;;;23.59
74750;BMP280;63269;53.330;-6.288;2023-07-09T09:28:48;101248.41;;;23.57
74750;BMP280;63269;53.330;-6.288;2023-07-09T09:31:13;101251.09;;;23.57
74750;BMP280;63269;53.330;-6.288;2023-07-09T09:33:41;101255.25;;;23.58
74750;BMP280;63269;53.330;-6.288;2023-07-09T09:36:14;101254.50;;;23.57
74750;BMP280;63269;53.330;-6.288;2023-07-09T09:38:40;101254.94;;;23.56
74750;BMP280;63269;53.330;-6.288;2023-07-09T09:41:12;101252.56;;;23.58
74750;BMP280;63269;53.330;-6.288;2023-07-09T09:43:41;101258.38;;;23.56
74750;BMP280;63269;53.330;-6.288;2023-07-09T09:46:07;101252.25;;;23.56
74750;BMP280;63269;53.330;-6.288;2023-07-09T09:48:32;101243.47;;;23.55
74750;BMP280;63269;53.330;-6.288;2023-07-09T09:50:59;101245.00;;;23.56
74750;BMP280;63269;53.330;-6.288;2023-07-09T09:53:29;101244.22;;;23.56
74750;BMP280;63269;53.330;-6.288;2023-07-09T09:56:04;101236.97;;;23.56
74750;BMP280;63269;53.330;-6.288;2023-07-09T09:58:30;101245.00;;;23.56
74750;BMP280;63269;53.330;-6.288;2023-07-09T10:00:58;101238.88;;;23.56
74750;BMP280;63269;53.330;-6.288;2023-07-09T10:03:38;101235.44;;;23.55
74750;BMP280;63269;53.330;-6.288;2023-07-09T10:06:14;101234.72;;;23.55
74750;BMP280;63269;53.330;-6.288;2023-07-09T10:14:13;101239.28;;;23.54
74750;BMP280;63269;53.330;-6.288;2023-07-09T10:16:45;101231.25;;;23.54
74750;BMP280;63269;53.330;-6.288;2023-07-09T10:19:39;101235.44;;;23.55
74750;BMP280;63269;53.330;-6.288;2023-07-09T10:25:16;101227.88;;;23.54
74750;BMP280;63269;53.330;-6.288;2023-07-09T10:30:40;101229.53;;;23.60
74750;BMP280;63269;53.330;-6.288;2023-07-09T10:33:12;101221.22;;;23.67
74750;BMP280;63269;53.330;-6.288;2023-07-09T10:35:54;101218.25;;;23.75
74750;BMP280;63269;53.330;-6.288;2023-07-09T10:41:31;101211.13;;;23.81
74750;BMP280;63269;53.330;-6.288;2023-07-09T10:44:01;101201.91;;;23.82
74750;BMP280;63269;53.330;-6.288;2023-07-09T10:46:32;101204.16;;;23.83
74750;BMP280;63269;53.330;-6.288;2023-07-09T10:49:01;101196.81;;;23.84
74750;BMP280;63269;53.330;-6.288;2023-07-09T10:52:32;101184.94;;;23.85
74750;BMP280;63269;53.330;-6.288;2023-07-09T10:54:39;101194.91;;;23.84
74750;BMP280;63269;53.330;-6.288;2023-07-09T10:57:29;101192.97;;;23.85
74750;BMP280;63269;53.330;-6.288;2023-07-09T10:59:56;101183.44;;;23.84
74750;BMP280;63269;53.330;-6.288;2023-07-09T11:02:33;101193.72;;;23.85
74750;BMP280;63269;53.330;-6.288;2023-07-09T11:05:05;101189.13;;;23.86
74750;BMP280;63269;53.330;-6.288;2023-07-09T11:07:40;101183.75;;;23.86
74750;BMP280;63269;53.330;-6.288;2023-07-09T11:10:25;101189.13;;;23.86
74750;BMP280;63269;53.330;-6.288;2023-07-09T11:13:01;101187.34;;;23.83
74750;BMP280;63269;53.330;-6.288;2023-07-09T11:15:34;101191.47;;;23.84
74750;BMP280;63269;53.330;-6.288;2023-07-09T11:18:00;101191.94;;;23.82
74750;BMP280;63269;53.330;-6.288;2023-07-09T11:20:33;101192.69;;;23.83
74750;BMP280;63269;53.330;-6.288;2023-07-09T11:23:07;101193.13;;;23.81
74750;BMP280;63269;53.330;-6.288;2023-07-09T11:25:43;101195.03;;;23.81
74750;BMP280;63269;53.330;-6.288;2023-07-09T11:28:09;101194.75;;;23.79
74750;BMP280;63269;53.330;-6.288;2023-07-09T11:30:55;101198.91;;;23.80
74750;BMP280;63269;53.330;-6.288;2023-07-09T11:33:29;101196.69;;;23.78
74750;BMP280;63269;53.330;-6.288;2023-07-09T11:38:41;101187.91;;;23.78
74750;BMP280;63269;53.330;-6.288;2023-07-09T11:41:27;101187.91;;;23.78
74750;BMP280;63269;53.330;-6.288;2023-07-09T11:44:02;101196.41;;;23.76
74750;BMP280;63269;53.330;-6.288;2023-07-09T11:46:28;101203.69;;;23.76
74750;BMP280;63269;53.330;-6.288;2023-07-09T11:48:56;101204.44;;;23.76
74750;BMP280;63269;53.330;-6.288;2023-07-09T11:51:31;101210.97;;;23.75
74750;BMP280;63269;53.330;-6.288;2023-07-09T11:54:00;101214.81;;;23.74
74750;BMP280;63269;53.330;-6.288;2023-07-09T11:56:25;101219.78;;;23.76
74750;BMP280;63269;53.330;-6.288;2023-07-09T11:58:54;101212.91;;;23.75
74750;BMP280;63269;53.330;-6.288;2023-07-09T12:01:22;101213.81;;;23.72
74750;BMP280;63269;53.330;-6.288;2023-07-09T12:03:50;101222.56;;;23.72
74750;BMP280;63269;53.330;-6.288;2023-07-09T12:06:19;101221.38;;;23.73
74750;BMP280;63269;53.330;-6.288;2023-07-09T12:08:46;101216.03;;;23.73
74750;BMP280;63269;53.330;-6.288;2023-07-09T12:13:51;101209.91;;;23.73
74750;BMP280;63269;53.330;-6.288;2023-07-09T12:16:30;101211.41;;;23.74
74750;BMP280;63269;53.330;-6.288;2023-07-09T12:18:55;101207.22;;;23.73
74750;BMP280;63269;53.330;-6.288;2023-07-09T12:21:23;101195.78;;;23.72
74750;BMP280;63269;53.330;-6.288;2023-07-09T12:23:49;101195.31;;;23.74
74750;BMP280;63269;53.330;-6.288;2023-07-09T12:26:16;101186.25;;;23.71
74750;BMP280;63269;53.330;-6.288;2023-07-09T12:28:42;101199.19;;;23.73
74750;BMP280;63269;53.330;-6.288;2023-07-09T12:31:14;101190.72;;;23.74
74750;BMP280;63269;53.330;-6.288;2023-07-09T12:33:51;101181.94;;;23.74
74750;BMP280;63269;53.330;-6.288;2023-07-09T12:36:18;101191.16;;;23.73
74750;BMP280;63269;53.330;-6.288;2023-07-09T12:38:46;101186.56;;;23.73
74750;BMP280;63269;53.330;-6.288;2023-07-09T12:41:40;101192.66;;;23.74
74750;BMP280;63269;53.330;-6.288;2023-07-09T12:44:14;101191.16;;;23.73
74750;BMP280;63269;53.330;-6.288;2023-07-09T12:46:40;101197.72;;;23.72
74750;BMP280;63269;53.330;-6.288;2023-07-09T12:49:06;101186.25;;;23.71
74750;BMP280;63269;53.330;-6.288;2023-07-09T12:51:31;101185.06;;;23.72
74750;BMP280;63269;53.330;-6.288;2023-07-09T12:54:17;101185.78;;;23.73
74750;BMP280;63269;53.330;-6.288;2023-07-09T12:56:43;101178.22;;;23.71
74750;BMP280;63269;53.330;-6.288;2023-07-09T12:59:47;101174.34;;;23.72
74750;BMP280;63269;53.330;-6.288;2023-07-09T13:02:22;101162.91;;;23.72
74750;BMP280;63269;53.330;-6.288;2023-07-09T13:04:49;101168.25;;;23.72
74750;BMP280;63269;53.330;-6.288;2023-07-09T13:09:51;101165.88;;;23.74
74750;BMP280;63269;53.330;-6.288;2023-07-09T13:12:17;101163.66;;;23.72
74750;BMP280;63269;53.330;-6.288;2023-07-09T13:14:52;101160.22;;;23.72
74750;BMP280;63269;53.330;-6.288;2023-07-09T13:17:18;101162.91;;;23.72
74750;BMP280;63269;53.330;-6.288;2023-07-09T13:19:44;101159.00;;;23.73
74750;BMP280;63269;53.330;-6.288;2023-07-09T13:22:17;101159.78;;;23.73
74750;BMP280;63269;53.330;-6.288;2023-07-09T13:24:45;101161.69;;;23.73
74750;BMP280;63269;53.330;-6.288;2023-07-09T13:27:15;101161.69;;;23.73
74750;BMP280;63269;53.330;-6.288;2023-07-09T13:29:41;101152.94;;;23.72
74750;BMP280;63269;53.330;-6.288;2023-07-09T13:32:11;101147.56;;;23.72
74750;BMP280;63269;53.330;-6.288;2023-07-09T13:34:37;101156.31;;;23.73
74750;BMP280;63269;53.330;-6.288;2023-07-09T13:37:04;101154.41;;;23.73
74750;BMP280;63269;53.330;-6.288;2023-07-09T13:39:29;101155.88;;;23.74
74750;BMP280;63269;53.330;-6.288;2023-07-09T13:41:56;101157.81;;;23.74
74750;BMP280;63269;53.330;-6.288;2023-07-09T13:44:31;101158.91;;;23.76
74750;BMP280;63269;53.330;-6.288;2023-07-09T13:46:56;101166.19;;;23.76
74750;BMP280;63269;53.330;-6.288;2023-07-09T13:49:24;101166.19;;;23.76
74750;BMP280;63269;53.330;-6.288;2023-07-09T13:51:52;101168.88;;;23.76
74750;BMP280;63269;53.330;-6.288;2023-07-09T13:56:45;101171.09;;;23.77
74750;BMP280;63269;53.330;-6.288;2023-07-09T13:59:16;101179.88;;;23.78
74750;BMP280;63269;53.330;-6.288;2023-07-09T14:01:42;101179.13;;;23.77
74750;BMP280;63269;53.330;-6.288;2023-07-09T14:04:10;101167.66;;;23.77
74750;BMP280;63269;53.330;-6.288;2023-07-09T14:06:37;101181.03;;;23.77
74750;BMP280;63269;53.330;-6.288;2023-07-09T14:09:02;101178.69;;;23.79
74750;BMP280;63269;53.330;-6.288;2023-07-09T14:11:28;101184.78;;;23.79
74750;BMP280;63269;53.330;-6.288;2023-07-09T14:13:54;101184.06;;;23.79
74750;BMP280;63269;53.330;-6.288;2023-07-09T14:16:21;101182.53;;;23.78
74750;BMP280;63269;53.330;-6.288;2023-07-09T14:18:46;101175.25;;;23.78
74750;BMP280;63269;53.330;-6.288;2023-07-09T14:21:13;101175.25;;;23.78
74750;BMP280;63269;53.330;-6.288;2023-07-09T14:23:39;101172.56;;;23.78
74750;BMP280;63269;53.330;-6.288;2023-07-09T14:26:04;101181.38;;;23.79
74750;BMP280;63269;53.330;-6.288;2023-07-09T14:28:30;101180.59;;;23.78
74750;BMP280;63269;53.330;-6.288;2023-07-09T14:30:56;101169.88;;;23.78
74750;BMP280;63269;53.330;-6.288;2023-07-09T14:33:22;101170.66;;;23.79
74750;BMP280;63269;53.330;-6.288;2023-07-09T14:35:48;101169.88;;;23.78
74750;BMP280;63269;53.330;-6.288;2023-07-09T14:38:21;101166.78;;;23.80